Time;durP1;ratioP1;P1;durP2;ratioP2;P2;SDS_P1;SDS_P2;PMS_P1;PMS_P2;Temp;Humidity;BMP_temperature;BMP_pressure;BME280_temperature;BME280_humidity;BME280_pressure;Samples;Min_cycle;Max_cycle;Signal;HPM_P1;HPM_P2
2022/10/24 00:02:17;;;;;;;;;;;15.20;99.90;;;;;;5014183;28;20283;-71
2022/10/24 00:04:43;;;;;;;;;;;15.20;99.90;;;;;;4967368;28;207392;-70
2022/10/24 00:07:09;;;;;;;;;;;15.20;99.90;;;;;;5031278;28;19917;-71
2022/10/24 00:09:36;;;;;;;;;;;15.10;99.90;;;;;;4977691;28;212421;-70
2022/10/24 00:12:03;;;;;;;;;;;15.10;99.90;;;;;;5001916;28;19928;-71
2022/10/24 00:14:28;;;;;;;;;;;15.10;99.90;;;;;;5018959;28;207163;-71
2022/10/24 00:16:54;;;;;;;;;;;15.10;99.90;;;;;;4990780;28;134278;-71
2022/10/24 00:19:20;;;;;;;;;;;15.00;99.90;;;;;;5028725;28;19928;-71
2022/10/24 00:21:46;;;;;;;;;;;15.00;99.90;;;;;;4959396;28;211002;-72
2022/10/24 00:24:13;;;;;;;;;;;15.00;99.90;;;;;;5030098;28;19921;-71
2022/10/24 00:26:39;;;;;;;;;;;15.00;99.90;;;;;;4970300;28;192983;-71
2022/10/24 00:29:05;;;;;;;;;;;15.10;99.90;;;;;;5031730;28;19917;-71
2022/10/24 00:31:31;;;;;;;;;;;15.00;99.90;;;;;;4965279;28;151648;-71
2022/10/24 00:33:58;;;;;;;;;;;15.00;99.90;;;;;;5026017;28;19971;-72
2022/10/24 00:36:25;;;;;;;;;;;15.00;99.90;;;;;;4981354;28;205712;-71
2022/10/24 00:38:52;;;;;;;;;;;15.10;99.90;;;;;;5028222;28;19932;-71
2022/10/24 00:41:19;;;;;;;;;;;15.10;99.90;;;;;;4972182;28;227437;-71
2022/10/24 00:43:45;;;;;;;;;;;15.10;99.90;;;;;;5028151;28;20404;-72
2022/10/24 00:46:12;;;;;;;;;;;15.10;99.90;;;;;;4966307;28;206209;-72
2022/10/24 00:48:48;;;;;;;;;;;15.10;99.90;;;;;;5020426;28;19921;-72
2022/10/24 00:51:18;;;;;;;;;;;15.10;99.90;;;;;;4979877;28;189847;-71
2022/10/24 00:53:46;;;;;;;;;;;15.10;99.90;;;;;;5058837;28;19917;-72
2022/10/24 00:56:13;;;;;;;;;;;15.00;99.90;;;;;;4987809;28;73910;-71
2022/10/24 00:58:40;;;;;;;;;;;15.00;99.90;;;;;;5028277;28;20379;-72
2022/10/24 01:01:07;;;;;;;;;;;15.00;99.90;;;;;;4969739;28;209163;-71
2022/10/24 01:03:34;;;;;;;;;;;14.90;99.90;;;;;;5024848;28;19917;-70
2022/10/24 01:06:12;;;;;;;;;;;15.00;99.90;;;;;;4970336;28;208719;-70
2022/10/24 01:08:43;;;;;;;;;;;15.00;99.90;;;;;;5032241;28;19924;-70
2022/10/24 01:11:15;;;;;;;;;;;15.00;99.90;;;;;;4994605;28;207803;-70
2022/10/24 01:13:54;;;;;;;;;;;15.00;99.90;;;;;;5054026;28;20401;-69
2022/10/24 01:16:22;;;;;;;;;;;15.00;99.90;;;;;;4993221;28;212210;-69
2022/10/24 01:19:00;;;;;;;;;;;15.00;99.90;;;;;;5028306;28;19916;-70
2022/10/24 01:21:36;;;;;;;;;;;15.00;99.90;;;;;;4966361;28;217607;-70
2022/10/24 01:24:02;;;;;;;;;;;15.00;99.90;;;;;;5026559;28;19930;-70
2022/10/24 01:26:28;;;;;;;;;;;15.10;99.90;;;;;;4974068;28;226273;-70
2022/10/24 01:29:07;;;;;;;;;;;15.10;99.90;;;;;;5030336;28;20385;-70
2022/10/24 01:31:38;;;;;;;;;;;15.10;99.90;;;;;;4947146;28;206982;-70
2022/10/24 01:34:16;;;;;;;;;;;15.10;99.90;;;;;;5033947;28;20302;-70
2022/10/24 01:36:44;;;;;;;;;;;15.10;99.90;;;;;;4958835;28;202298;-69
2022/10/24 01:39:13;;;;;;;;;;;15.10;99.90;;;;;;5027231;28;20385;-70
2022/10/24 01:41:40;;;;;;;;;;;15.10;99.90;;;;;;4977279;28;205845;-70
2022/10/24 01:44:17;;;;;;;;;;;15.10;99.90;;;;;;5028416;28;19924;-70
2022/10/24 01:46:47;;;;;;;;;;;15.10;99.90;;;;;;4974542;28;208955;-70
2022/10/24 01:49:17;;;;;;;;;;;15.10;99.90;;;;;;5027527;28;19921;-70
2022/10/24 01:51:45;;;;;;;;;;;15.20;99.90;;;;;;4958438;28;225622;-70
2022/10/24 01:54:11;;;;;;;;;;;15.20;99.90;;;;;;5060799;28;19928;-69
2022/10/24 01:56:37;;;;;;;;;;;15.20;99.90;;;;;;4989162;28;206084;-70
2022/10/24 01:59:27;;;;;;;;;;;15.20;99.90;;;;;;5033649;28;19929;-70
2022/10/24 02:02:05;;;;;;;;;;;15.20;99.90;;;;;;4957890;28;213928;-70
2022/10/24 02:04:32;;;;;;;;;;;15.30;99.90;;;;;;5005476;28;207221;-70
2022/10/24 02:07:01;;;;;;;;;;;15.30;99.90;;;;;;4983992;28;19928;-70
2022/10/24 02:09:27;;;;;;;;;;;15.30;99.90;;;;;;5017851;28;248697;-70
2022/10/24 02:11:55;;;;;;;;;;;15.30;99.90;;;;;;4980534;28;187656;-70
2022/10/24 02:14:26;;;;;;;;;;;15.30;99.90;;;;;;5027647;28;19921;-70
2022/10/24 02:16:53;;;;;;;;;;;15.30;99.90;;;;;;4942275;28;196643;-70
2022/10/24 02:19:20;;;;;;;;;;;15.20;99.90;;;;;;5013005;28;19917;-69
2022/10/24 02:22:04;;;;;;;;;;;15.30;99.90;;;;;;4950002;28;238509;-69
2022/10/24 02:24:36;;;;;;;;;;;15.30;99.90;;;;;;5041517;28;209855;-70
2022/10/24 02:27:08;;;;;;;;;;;15.30;99.90;;;;;;4982229;28;20020;-69
2022/10/24 02:29:34;;;;;;;;;;;15.30;99.90;;;;;;4986745;28;212078;-70
2022/10/24 02:32:05;;;;;;;;;;;15.30;99.90;;;;;;5008999;28;19921;-70
2022/10/24 02:34:33;;;;;;;;;;;15.30;99.90;;;;;;5012115;28;207157;-70
2022/10/24 02:36:59;;;;;;;;;;;15.30;99.90;;;;;;5009872;28;19921;-70
2022/10/24 02:39:27;;;;;;;;;;;15.30;99.90;;;;;;5024126;28;244060;-69
2022/10/24 02:41:55;;;;;;;;;;;15.30;99.90;;;;;;4966727;28;248423;-70
2022/10/24 02:44:21;;;;;;;;;;;15.30;99.90;;;;;;5060027;28;19925;-70
2022/10/24 02:46:49;;;;;;;;;;;15.40;99.90;;;;;;4985394;28;210341;-70
2022/10/24 02:49:15;;;;;;;;;;;15.40;99.90;;;;;;5046025;28;19928;-70
2022/10/24 02:51:43;;;;;;;;;;;15.40;99.90;;;;;;4959574;28;204850;-69
2022/10/24 02:54:10;;;;;;;;;;;15.40;99.90;;;;;;5024423;28;19929;-68
2022/10/24 02:56:38;;;;;;;;;;;15.40;99.90;;;;;;4943120;28;173680;-70
2022/10/24 02:59:04;;;;;;;;;;;15.40;99.90;;;;;;5041998;28;20458;-70
2022/10/24 03:01:30;;;;;;;;;;;15.40;99.90;;;;;;4982851;28;200141;-69
2022/10/24 03:03:55;;;;;;;;;;;15.30;99.90;;;;;;5029964;28;19932;-69
2022/10/24 03:06:21;;;;;;;;;;;15.30;99.90;;;;;;4967301;28;208485;-69
2022/10/24 03:08:47;;;;;;;;;;;15.30;99.90;;;;;;5027091;28;19921;-70
2022/10/24 03:11:13;;;;;;;;;;;15.30;99.90;;;;;;4973207;28;211967;-70
2022/10/24 03:13:39;;;;;;;;;;;15.30;99.90;;;;;;5014518;28;19921;-69
2022/10/24 03:16:05;;;;;;;;;;;15.40;99.90;;;;;;4991487;28;188346;-70
2022/10/24 03:18:31;;;;;;;;;;;15.40;99.90;;;;;;5027455;28;19948;-70
2022/10/24 03:20:57;;;;;;;;;;;15.40;99.90;;;;;;4986297;28;208125;-69
2022/10/24 03:23:27;;;;;;;;;;;15.40;99.90;;;;;;5026543;28;19928;-70
2022/10/24 03:25:57;;;;;;;;;;;15.40;99.90;;;;;;4967703;28;233727;-69
2022/10/24 03:28:23;;;;;;;;;;;15.40;99.90;;;;;;5026594;28;19921;-69
2022/10/24 03:30:49;;;;;;;;;;;15.30;99.90;;;;;;4991524;28;157165;-69
2022/10/24 03:33:15;;;;;;;;;;;15.30;99.90;;;;;;5029939;28;19921;-70
2022/10/24 03:35:41;;;;;;;;;;;15.30;99.90;;;;;;4977593;28;211339;-69
2022/10/24 03:38:07;;;;;;;;;;;15.30;99.90;;;;;;5036682;28;19917;-70
2022/10/24 03:40:34;;;;;;;;;;;15.30;99.90;;;;;;4977798;28;208052;-70
2022/10/24 03:43:00;;;;;;;;;;;15.30;99.90;;;;;;5029570;28;20000;-70
2022/10/24 03:45:25;;;;;;;;;;;15.30;99.90;;;;;;4985158;28;224109;-70
2022/10/24 03:47:52;;;;;;;;;;;15.30;99.90;;;;;;5043885;28;19955;-70
2022/10/24 03:50:18;;;;;;;;;;;15.30;99.90;;;;;;4984239;28;204660;-70
2022/10/24 03:52:44;;;;;;;;;;;15.30;99.90;;;;;;5027444;28;19931;-70
2022/10/24 03:55:10;;;;;;;;;;;15.30;99.90;;;;;;5003492;28;208271;-70
2022/10/24 03:57:36;;;;;;;;;;;15.30;99.90;;;;;;5018882;28;19924;-72
2022/10/24 04:00:02;;;;;;;;;;;15.30;99.90;;;;;;4988674;28;211737;-70
2022/10/24 04:02:28;;;;;;;;;;;15.30;99.90;;;;;;5056657;28;19921;-70
2022/10/24 04:04:54;;;;;;;;;;;15.20;99.90;;;;;;4974923;28;195269;-70
2022/10/24 04:07:20;;;;;;;;;;;15.20;99.90;;;;;;5041950;28;20017;-70
2022/10/24 04:09:46;;;;;;;;;;;15.20;99.90;;;;;;4960440;28;213505;-70
2022/10/24 04:12:12;;;;;;;;;;;15.10;99.90;;;;;;5012462;28;19936;-70
2022/10/24 04:14:38;;;;;;;;;;;15.10;99.90;;;;;;4982414;28;200044;-70
2022/10/24 04:17:04;;;;;;;;;;;15.10;99.90;;;;;;5044916;28;19928;-70
2022/10/24 04:19:30;;;;;;;;;;;15.10;99.90;;;;;;5008078;28;215973;-71
2022/10/24 04:21:56;;;;;;;;;;;15.10;99.90;;;;;;4958734;28;252965;-70
2022/10/24 04:24:22;;;;;;;;;;;15.10;99.90;;;;;;5030226;28;19963;-70
2022/10/24 04:26:48;;;;;;;;;;;15.10;99.90;;;;;;4973751;28;207244;-70
2022/10/24 04:29:14;;;;;;;;;;;15.10;99.90;;;;;;5028491;28;19921;-70
2022/10/24 04:31:40;;;;;;;;;;;15.10;99.90;;;;;;4982219;28;181173;-70
2022/10/24 04:34:06;;;;;;;;;;;15.00;99.90;;;;;;5032367;28;19921;-70
2022/10/24 04:36:33;;;;;;;;;;;15.10;99.90;;;;;;4980893;28;163656;-70
2022/10/24 04:38:59;;;;;;;;;;;15.10;99.90;;;;;;5010914;28;19925;-69
2022/10/24 04:41:24;;;;;;;;;;;15.00;99.90;;;;;;4983619;28;209241;-70
2022/10/24 04:43:51;;;;;;;;;;;15.00;99.90;;;;;;5036378;28;20024;-70
2022/10/24 04:46:17;;;;;;;;;;;15.00;99.90;;;;;;4981836;28;209461;-71
2022/10/24 04:48:43;;;;;;;;;;;15.00;99.90;;;;;;5027787;28;20563;-70
2022/10/24 04:51:09;;;;;;;;;;;14.90;99.90;;;;;;4974639;28;208850;-70
2022/10/24 04:53:36;;;;;;;;;;;14.90;99.90;;;;;;5051474;28;19924;-71
2022/10/24 04:56:05;;;;;;;;;;;14.80;99.90;;;;;;4970587;28;207696;-71
2022/10/24 04:58:31;;;;;;;;;;;14.80;99.90;;;;;;5030019;28;19928;-71
2022/10/24 05:00:57;;;;;;;;;;;14.80;99.90;;;;;;4971812;28;216165;-71
2022/10/24 05:03:23;;;;;;;;;;;14.80;99.90;;;;;;5021314;28;19924;-72
2022/10/24 05:05:49;;;;;;;;;;;14.70;99.90;;;;;;4949834;28;200245;-71
2022/10/24 05:08:16;;;;;;;;;;;14.70;99.90;;;;;;5012695;28;19921;-71
2022/10/24 05:10:42;;;;;;;;;;;14.70;99.90;;;;;;4994979;28;205646;-70
2022/10/24 05:13:08;;;;;;;;;;;14.70;99.90;;;;;;5020985;28;19925;-71
2022/10/24 05:15:35;;;;;;;;;;;14.70;99.90;;;;;;4979410;28;209615;-70
2022/10/24 05:18:00;;;;;;;;;;;14.70;99.90;;;;;;5022503;28;20313;-71
2022/10/24 05:20:27;;;;;;;;;;;14.60;99.90;;;;;;4975938;28;191375;-70
2022/10/24 05:22:53;;;;;;;;;;;14.60;99.90;;;;;;5024633;28;19929;-70
2022/10/24 05:25:25;;;;;;;;;;;14.60;99.90;;;;;;4975335;28;212365;-71
2022/10/24 05:27:51;;;;;;;;;;;14.50;99.90;;;;;;5017204;28;20400;-70
2022/10/24 05:30:17;;;;;;;;;;;14.60;99.90;;;;;;4977235;28;186937;-71
2022/10/24 05:32:43;;;;;;;;;;;14.60;99.90;;;;;;5013787;28;19920;-71
2022/10/24 05:35:09;;;;;;;;;;;14.60;99.90;;;;;;4969580;28;217761;-70
2022/10/24 05:37:35;;;;;;;;;;;14.60;99.90;;;;;;5021636;28;19920;-71
2022/10/24 05:40:01;;;;;;;;;;;14.60;99.90;;;;;;4968594;28;211589;-71
2022/10/24 05:42:27;;;;;;;;;;;14.60;99.90;;;;;;5000692;28;20509;-70
2022/10/24 05:44:53;;;;;;;;;;;14.70;99.90;;;;;;4972295;28;193634;-70
2022/10/24 05:47:19;;;;;;;;;;;14.70;99.90;;;;;;5022645;28;19968;-70
2022/10/24 05:49:45;;;;;;;;;;;14.60;99.90;;;;;;4970079;28;211972;-71
2022/10/24 05:52:11;;;;;;;;;;;14.60;99.90;;;;;;5045707;28;19917;-70
2022/10/24 05:54:37;;;;;;;;;;;14.70;99.90;;;;;;4974588;28;207068;-71
2022/10/24 05:57:03;;;;;;;;;;;14.70;99.90;;;;;;5020855;28;20002;-71
2022/10/24 05:59:29;;;;;;;;;;;14.80;99.90;;;;;;5007479;28;224657;-71
2022/10/24 06:01:55;;;;;;;;;;;14.80;99.90;;;;;;4981439;28;19952;-72
2022/10/24 06:04:21;;;;;;;;;;;14.80;99.90;;;;;;5027169;28;19932;-71
2022/10/24 06:06:47;;;;;;;;;;;14.80;99.90;;;;;;4986884;28;206568;-70
2022/10/24 06:09:13;;;;;;;;;;;14.80;99.90;;;;;;5029699;28;19925;-71
2022/10/24 06:11:39;;;;;;;;;;;14.90;99.90;;;;;;4974150;28;171591;-70
2022/10/24 06:14:05;;;;;;;;;;;14.90;99.90;;;;;;5055932;28;19961;-71
2022/10/24 06:16:32;;;;;;;;;;;14.90;99.90;;;;;;4944264;28;177244;-71
2022/10/24 06:18:59;;;;;;;;;;;14.90;99.90;;;;;;5030007;28;19925;-73
2022/10/24 06:21:25;;;;;;;;;;;14.90;99.90;;;;;;4975536;28;259039;-70
2022/10/24 06:23:51;;;;;;;;;;;15.00;99.90;;;;;;5028644;28;20401;-70
2022/10/24 06:26:17;;;;;;;;;;;14.90;99.90;;;;;;4992900;28;80842;-71
2022/10/24 06:28:43;;;;;;;;;;;15.00;99.90;;;;;;5028953;28;20390;-71
2022/10/24 06:31:11;;;;;;;;;;;15.00;99.90;;;;;;4974630;28;208228;-71
2022/10/24 06:33:37;;;;;;;;;;;15.00;99.90;;;;;;5028330;28;19917;-73
2022/10/24 06:36:04;;;;;;;;;;;14.90;99.90;;;;;;4981586;28;156926;-71
2022/10/24 06:38:31;;;;;;;;;;;14.90;99.90;;;;;;5025695;28;19925;-70
2022/10/24 06:40:57;;;;;;;;;;;14.90;99.90;;;;;;4973454;28;209081;-70
2022/10/24 06:43:23;;;;;;;;;;;14.90;99.90;;;;;;5024073;28;20298;-71
2022/10/24 06:45:49;;;;;;;;;;;14.90;99.90;;;;;;4967007;28;216734;-70
2022/10/24 06:48:15;;;;;;;;;;;14.90;99.90;;;;;;5029594;28;19916;-70
2022/10/24 06:50:41;;;;;;;;;;;14.90;99.90;;;;;;4973578;28;212598;-71
2022/10/24 06:53:08;;;;;;;;;;;14.90;99.90;;;;;;5027764;28;19921;-70
2022/10/24 06:55:36;;;;;;;;;;;14.80;99.90;;;;;;4983752;28;223227;-72
2022/10/24 06:58:05;;;;;;;;;;;14.90;99.90;;;;;;5035439;28;20424;-71
2022/10/24 07:00:32;;;;;;;;;;;14.90;99.90;;;;;;4991485;28;211088;-71
2022/10/24 07:02:58;;;;;;;;;;;15.00;99.90;;;;;;5023496;28;19925;-71
2022/10/24 07:05:24;;;;;;;;;;;15.10;99.90;;;;;;4963028;28;206125;-71
2022/10/24 07:07:50;;;;;;;;;;;15.20;99.90;;;;;;5042318;28;19917;-70
2022/10/24 07:10:16;;;;;;;;;;;15.20;99.90;;;;;;4977483;28;185723;-70
2022/10/24 07:12:42;;;;;;;;;;;15.20;99.90;;;;;;5035465;28;19972;-70
2022/10/24 07:15:08;;;;;;;;;;;15.30;99.90;;;;;;5013326;28;115246;-70
2022/10/24 07:17:41;;;;;;;;;;;15.30;99.90;;;;;;5021169;28;19916;-71
2022/10/24 07:20:07;;;;;;;;;;;15.30;99.90;;;;;;4995795;28;207843;-70
2022/10/24 07:22:33;;;;;;;;;;;15.40;99.90;;;;;;5047464;28;19921;-69
2022/10/24 07:24:59;;;;;;;;;;;15.40;99.90;;;;;;4985412;28;170043;-70
2022/10/24 07:27:25;;;;;;;;;;;15.40;99.90;;;;;;5029039;28;19939;-70
2022/10/24 07:29:51;;;;;;;;;;;15.40;99.90;;;;;;4979738;28;223418;-72
2022/10/24 07:32:18;;;;;;;;;;;15.30;99.90;;;;;;5043007;28;19951;-71
2022/10/24 07:34:43;;;;;;;;;;;15.40;99.90;;;;;;4984958;28;206492;-71
2022/10/24 07:37:09;;;;;;;;;;;15.40;99.90;;;;;;5040503;28;20382;-70
2022/10/24 07:39:36;;;;;;;;;;;15.50;99.90;;;;;;4990409;28;212565;-71
2022/10/24 07:42:03;;;;;;;;;;;15.60;99.90;;;;;;5026244;28;20370;-70
2022/10/24 07:44:29;;;;;;;;;;;15.70;99.90;;;;;;5014492;28;215674;-70
2022/10/24 07:46:55;;;;;;;;;;;15.80;99.90;;;;;;4993613;28;160250;-70
2022/10/24 07:49:21;;;;;;;;;;;15.90;99.90;;;;;;5055965;28;19920;-71
2022/10/24 07:51:46;;;;;;;;;;;16.00;99.90;;;;;;4972612;28;206329;-70
2022/10/24 07:54:12;;;;;;;;;;;16.00;99.90;;;;;;5029310;28;19921;-70
2022/10/24 07:56:38;;;;;;;;;;;16.00;99.90;;;;;;4978243;28;205220;-70
2022/10/24 07:59:04;;;;;;;;;;;16.10;99.90;;;;;;5025367;28;19921;-71
2022/10/24 08:01:30;;;;;;;;;;;16.10;99.90;;;;;;4977219;28;207354;-71
2022/10/24 08:03:56;;;;;;;;;;;16.10;99.90;;;;;;5025600;28;20378;-70
2022/10/24 08:06:23;;;;;;;;;;;16.10;99.90;;;;;;4964739;28;206089;-68
2022/10/24 08:08:50;;;;;;;;;;;16.10;99.90;;;;;;5030922;28;19917;-68
2022/10/24 08:11:17;;;;;;;;;;;16.10;99.90;;;;;;4982929;28;182888;-69
2022/10/24 08:13:43;;;;;;;;;;;16.10;99.90;;;;;;5025590;28;19929;-68
2022/10/24 08:16:10;;;;;;;;;;;16.10;99.90;;;;;;5001115;28;182773;-70
2022/10/24 08:18:36;;;;;;;;;;;16.10;99.90;;;;;;5026965;28;20008;-71
2022/10/24 08:21:04;;;;;;;;;;;16.20;99.90;;;;;;4982096;28;158236;-69
2022/10/24 08:23:31;;;;;;;;;;;16.20;99.90;;;;;;5026569;28;19921;-71
2022/10/24 08:25:57;;;;;;;;;;;16.30;99.90;;;;;;4988038;28;205647;-69
2022/10/24 08:28:23;;;;;;;;;;;16.30;99.90;;;;;;5031472;28;19925;-69
2022/10/24 08:31:03;;;;;;;;;;;16.30;99.90;;;;;;4973895;28;202045;-69
2022/10/24 08:33:29;;;;;;;;;;;16.30;99.90;;;;;;5022534;28;19947;-70
2022/10/24 08:35:59;;;;;;;;;;;16.40;99.90;;;;;;4969718;28;207003;-68
2022/10/24 08:38:26;;;;;;;;;;;16.40;99.90;;;;;;5006754;28;19925;-70
2022/10/24 08:40:52;;;;;;;;;;;16.30;99.90;;;;;;4972904;28;160470;-68
2022/10/24 08:43:18;;;;;;;;;;;16.30;99.90;;;;;;5022954;28;20388;-68
2022/10/24 08:45:50;;;;;;;;;;;16.30;99.90;;;;;;4975840;28;211624;-70
2022/10/24 08:48:23;;;;;;;;;;;16.40;99.90;;;;;;5025572;28;20254;-71
2022/10/24 08:50:52;;;;;;;;;;;16.40;99.90;;;;;;4989032;28;48003;-70
2022/10/24 08:53:21;;;;;;;;;;;16.40;99.90;;;;;;5024095;28;19920;-70
2022/10/24 08:55:53;;;;;;;;;;;16.50;99.90;;;;;;4981854;28;192935;-70
2022/10/24 08:58:22;;;;;;;;;;;16.50;99.90;;;;;;5042622;28;19921;-70
2022/10/24 09:00:50;;;;;;;;;;;16.60;99.90;;;;;;4957943;28;210301;-69
2022/10/24 09:03:29;;;;;;;;;;;16.70;99.90;;;;;;5026626;28;19921;-68
2022/10/24 09:05:57;;;;;;;;;;;16.70;99.90;;;;;;4980650;28;217857;-69
2022/10/24 09:08:31;;;;;;;;;;;16.90;99.90;;;;;;5014211;28;21762;-69
2022/10/24 09:10:58;;;;;;;;;;;17.00;99.90;;;;;;4970000;28;192633;-69
2022/10/24 09:13:25;;;;;;;;;;;17.10;99.90;;;;;;5024096;28;19924;-68
2022/10/24 09:15:51;;;;;;;;;;;17.20;99.90;;;;;;4967348;28;208406;-68
2022/10/24 09:18:23;;;;;;;;;;;17.20;99.90;;;;;;5025190;28;19927;-67
2022/10/24 09:20:50;;;;;;;;;;;17.20;99.90;;;;;;4973124;28;196074;-68
2022/10/24 09:23:18;;;;;;;;;;;17.20;99.90;;;;;;5024344;28;19917;-69
2022/10/24 09:25:46;;;;;;;;;;;17.10;99.90;;;;;;4979959;28;209680;-69
2022/10/24 09:28:13;;;;;;;;;;;17.10;99.90;;;;;;5029045;28;19917;-70
2022/10/24 09:30:39;;;;;;;;;;;17.00;99.90;;;;;;4979782;28;192954;-69
2022/10/24 09:33:20;;;;;;;;;;;17.00;99.90;;;;;;5027127;28;19917;-69
2022/10/24 09:35:46;;;;;;;;;;;17.00;99.90;;;;;;4975515;28;208586;-71
2022/10/24 09:38:22;;;;;;;;;;;17.00;99.90;;;;;;5039557;28;20398;-69
2022/10/24 09:40:52;;;;;;;;;;;17.00;99.90;;;;;;4980938;28;207825;-69
2022/10/24 09:43:21;;;;;;;;;;;17.20;99.90;;;;;;5031911;28;19932;-69
2022/10/24 09:46:05;;;;;;;;;;;17.30;99.90;;;;;;4988080;28;208026;-69
2022/10/24 09:48:32;;;;;;;;;;;17.40;99.90;;;;;;5054537;28;19921;-69
2022/10/24 09:50:59;;;;;;;;;;;17.40;99.90;;;;;;4971663;28;208089;-68
2022/10/24 09:53:30;;;;;;;;;;;17.30;99.90;;;;;;5025701;28;19921;-65
2022/10/24 09:56:09;;;;;;;;;;;17.30;99.90;;;;;;4967387;28;191979;-65
2022/10/24 09:58:35;;;;;;;;;;;17.30;99.90;;;;;;5016339;28;19940;-66
2022/10/24 10:01:01;;;;;;;;;;;17.30;99.90;;;;;;4971337;28;185853;-68
2022/10/24 10:03:27;;;;;;;;;;;17.40;99.90;;;;;;5027579;28;19925;-68
2022/10/24 10:05:54;;;;;;;;;;;17.30;99.90;;;;;;4961421;28;203940;-68
2022/10/24 10:08:28;;;;;;;;;;;17.40;99.90;;;;;;5023828;28;19928;-68
2022/10/24 10:10:57;;;;;;;;;;;17.40;99.90;;;;;;4979229;28;206686;-68
2022/10/24 10:13:26;;;;;;;;;;;17.40;99.90;;;;;;5029707;28;20843;-67
2022/10/24 10:15:54;;;;;;;;;;;17.30;99.90;;;;;;4984899;28;190970;-68
2022/10/24 10:18:29;;;;;;;;;;;17.20;99.90;;;;;;5027409;28;19932;-67
2022/10/24 10:21:05;;;;;;;;;;;17.20;99.90;;;;;;4972424;28;154139;-68
2022/10/24 10:23:33;;;;;;;;;;;17.10;99.90;;;;;;5026326;28;19925;-68
2022/10/24 10:26:02;;;;;;;;;;;17.10;99.90;;;;;;4976966;28;211343;-68
2022/10/24 10:28:28;;;;;;;;;;;17.20;99.90;;;;;;5058257;28;19917;-68
2022/10/24 10:30:55;;;;;;;;;;;17.20;99.90;;;;;;4984498;28;208439;-66
2022/10/24 10:33:29;;;;;;;;;;;17.20;99.90;;;;;;5036978;28;19917;-67
2022/10/24 10:36:01;;;;;;;;;;;17.30;99.90;;;;;;4983830;28;206898;-67
2022/10/24 10:38:43;;;;;;;;;;;17.30;99.90;;;;;;5027913;28;19924;-68
2022/10/24 10:41:21;;;;;;;;;;;17.30;99.90;;;;;;4975665;28;212059;-68
2022/10/24 10:44:05;;;;;;;;;;;17.50;99.90;;;;;;5011218;28;20335;-69
2022/10/24 10:46:50;;;;;;;;;;;17.60;99.90;;;;;;4976093;28;229697;-68
2022/10/24 10:49:28;;;;;;;;;;;17.60;99.90;;;;;;5028875;28;19928;-68
2022/10/24 10:52:05;;;;;;;;;;;17.70;99.90;;;;;;4921287;28;210692;-67
2022/10/24 10:54:49;;;;;;;;;;;17.80;99.90;;;;;;5014043;28;207434;-68
2022/10/24 10:57:18;;;;;;;;;;;17.90;99.90;;;;;;4982792;28;19929;-68
2022/10/24 10:59:44;;;;;;;;;;;17.90;99.90;;;;;;4980468;28;232444;-67
2022/10/24 11:02:28;;;;;;;;;;;18.00;99.90;;;;;;5031935;28;19969;-68
2022/10/24 11:05:13;;;;;;;;;;;17.90;99.90;;;;;;4997862;28;189330;-67
2022/10/24 11:07:44;;;;;;;;;;;17.90;99.90;;;;;;5041359;28;19917;-68
2022/10/24 11:10:16;;;;;;;;;;;17.90;99.90;;;;;;4976946;28;207440;-68
2022/10/24 11:12:42;;;;;;;;;;;17.80;99.90;;;;;;5017157;28;19924;-68
2022/10/24 11:15:19;;;;;;;;;;;17.70;99.90;;;;;;5002721;28;206303;-67
2022/10/24 11:17:44;;;;;;;;;;;17.70;99.90;;;;;;5028298;28;19925;-69
2022/10/24 11:20:25;;;;;;;;;;;17.70;99.90;;;;;;4983531;28;208382;-68
2022/10/24 11:23:02;;;;;;;;;;;17.60;99.90;;;;;;5041990;28;19927;-68
2022/10/24 11:25:35;;;;;;;;;;;17.40;99.90;;;;;;4981733;28;106612;-68
2022/10/24 11:28:16;;;;;;;;;;;17.30;99.90;;;;;;5017738;28;19928;-67
2022/10/24 11:30:45;;;;;;;;;;;17.20;99.90;;;;;;4967459;28;212194;-69
2022/10/24 11:33:16;;;;;;;;;;;17.30;99.90;;;;;;5024499;28;19921;-68
2022/10/24 11:35:53;;;;;;;;;;;17.40;99.90;;;;;;4982587;28;211895;-69
2022/10/24 11:38:21;;;;;;;;;;;17.50;99.90;;;;;;5039326;28;19928;-67
2022/10/24 11:40:52;;;;;;;;;;;17.50;99.90;;;;;;4994129;28;206996;-67
2022/10/24 11:43:25;;;;;;;;;;;17.70;99.90;;;;;;5026190;28;20294;-65
2022/10/24 11:45:58;;;;;;;;;;;17.60;99.90;;;;;;4985860;28;177666;-66
2022/10/24 11:48:52;;;;;;;;;;;17.40;99.90;;;;;;5036135;28;19925;-65
2022/10/24 11:51:23;;;;;;;;;;;17.40;99.90;;;;;;4991640;28;217157;-66
2022/10/24 11:53:52;;;;;;;;;;;17.50;99.90;;;;;;5024790;28;19921;-66
2022/10/24 11:56:23;;;;;;;;;;;17.70;99.90;;;;;;4984142;28;181835;-66
2022/10/24 11:59:03;;;;;;;;;;;17.60;99.90;;;;;;5024846;28;20362;-67
2022/10/24 12:01:34;;;;;;;;;;;17.90;99.90;;;;;;5004755;28;170798;-68
2022/10/24 12:04:15;;;;;;;;;;;18.10;99.90;;;;;;5055896;28;19921;-67
2022/10/24 12:07:00;;;;;;;;;;;17.80;99.90;;;;;;4966732;28;153754;-68
2022/10/24 12:09:35;;;;;;;;;;;17.80;99.90;;;;;;5017284;28;208097;-69
2022/10/24 12:12:08;;;;;;;;;;;18.30;99.90;;;;;;4976959;28;208204;-66
2022/10/24 12:14:52;;;;;;;;;;;18.00;99.90;;;;;;5010056;28;206921;-67
2022/10/24 12:17:37;;;;;;;;;;;17.80;99.90;;;;;;5012390;28;19940;-67
2022/10/24 12:20:05;;;;;;;;;;;18.00;99.90;;;;;;4977654;28;175660;-67
2022/10/24 12:22:36;;;;;;;;;;;18.20;99.90;;;;;;5039286;28;19925;-67
2022/10/24 12:25:05;;;;;;;;;;;18.10;99.90;;;;;;4956230;28;210736;-68
2022/10/24 12:27:34;;;;;;;;;;;17.80;99.90;;;;;;5010896;28;19921;-68
2022/10/24 12:30:12;;;;;;;;;;;17.60;99.90;;;;;;4971775;28;182284;-67
2022/10/24 12:32:39;;;;;;;;;;;17.60;99.90;;;;;;5019044;28;19917;-68
2022/10/24 12:35:24;;;;;;;;;;;17.40;99.90;;;;;;4962836;28;210452;-65
2022/10/24 12:37:50;;;;;;;;;;;17.30;99.90;;;;;;5050503;28;19921;-65
2022/10/24 12:40:35;;;;;;;;;;;17.10;99.90;;;;;;4970640;28;206525;-67
2022/10/24 12:43:06;;;;;;;;;;;17.00;99.90;;;;;;5029546;28;19928;-67
2022/10/24 12:45:32;;;;;;;;;;;16.90;99.90;;;;;;4970852;28;165683;-66
2022/10/24 12:47:58;;;;;;;;;;;16.80;99.90;;;;;;5036482;28;19924;-67
2022/10/24 12:50:26;;;;;;;;;;;16.80;99.90;;;;;;4987951;28;158886;-67
2022/10/24 12:52:55;;;;;;;;;;;16.80;99.90;;;;;;5029400;28;19917;-66
2022/10/24 12:55:28;;;;;;;;;;;16.80;99.90;;;;;;4982025;28;216108;-67
2022/10/24 12:57:54;;;;;;;;;;;16.90;99.90;;;;;;5062201;28;19924;-67
2022/10/24 13:00:23;;;;;;;;;;;17.00;99.90;;;;;;4961209;28;208174;-68
2022/10/24 13:03:15;;;;;;;;;;;17.10;99.90;;;;;;5023791;28;19921;-67
2022/10/24 13:05:44;;;;;;;;;;;17.00;99.90;;;;;;4988933;28;207681;-66
2022/10/24 13:08:20;;;;;;;;;;;17.00;99.90;;;;;;5025369;28;19931;-66
2022/10/24 13:11:05;;;;;;;;;;;17.10;99.90;;;;;;4978630;28;148545;-66
2022/10/24 13:13:30;;;;;;;;;;;17.20;99.90;;;;;;5023990;28;19927;-66
2022/10/24 13:16:01;;;;;;;;;;;17.20;99.90;;;;;;4962366;28;210255;-66
2022/10/24 13:18:37;;;;;;;;;;;17.10;99.90;;;;;;5024676;28;19932;-66
2022/10/24 13:21:12;;;;;;;;;;;17.00;99.90;;;;;;4994709;28;151684;-67
2022/10/24 13:23:38;;;;;;;;;;;17.00;99.90;;;;;;5008978;28;19917;-66
2022/10/24 13:26:04;;;;;;;;;;;17.00;99.90;;;;;;4954752;28;227679;-66
2022/10/24 13:28:34;;;;;;;;;;;17.00;99.90;;;;;;5008205;28;19920;-67
2022/10/24 13:31:00;;;;;;;;;;;17.00;99.90;;;;;;4973446;28;206311;-66
2022/10/24 13:33:35;;;;;;;;;;;17.40;99.90;;;;;;5022172;28;19923;-68
2022/10/24 13:38:47;;;;;;;;;;;17.30;99.90;;;;;;5021528;28;20381;-67
2022/10/24 13:41:20;;;;;;;;;;;17.80;99.90;;;;;;4978330;28;195557;-68
2022/10/24 13:43:48;;;;;;;;;;;18.20;99.90;;;;;;5030987;28;20457;-68
2022/10/24 13:46:34;;;;;;;;;;;17.90;99.90;;;;;;4980436;28;145138;-67
2022/10/24 13:49:00;;;;;;;;;;;18.00;99.90;;;;;;5020831;28;19932;-67
2022/10/24 13:51:55;;;;;;;;;;;17.70;99.90;;;;;;4983042;28;214169;-66
2022/10/24 13:54:30;;;;;;;;;;;17.30;99.90;;;;;;5031175;28;20066;-67
2022/10/24 13:56:56;;;;;;;;;;;17.10;99.90;;;;;;4957279;28;223005;-67
2022/10/24 13:59:29;;;;;;;;;;;16.90;99.90;;;;;;5047304;28;19921;-68
2022/10/24 14:01:56;;;;;;;;;;;16.80;99.90;;;;;;4991003;28;209663;-68
2022/10/24 14:04:23;;;;;;;;;;;17.00;99.90;;;;;;5030427;28;19916;-68
2022/10/24 14:06:51;;;;;;;;;;;17.00;99.90;;;;;;4965454;28;208219;-68
2022/10/24 14:09:17;;;;;;;;;;;17.10;99.90;;;;;;5029570;28;19944;-68
2022/10/24 14:11:45;;;;;;;;;;;17.10;99.90;;;;;;4972497;28;183565;-68
2022/10/24 14:14:23;;;;;;;;;;;18.10;99.90;;;;;;5030929;28;19921;-68
2022/10/24 14:17:03;;;;;;;;;;;19.20;99.90;;;;;;4980293;28;203031;-68
2022/10/24 14:19:29;;;;;;;;;;;18.60;99.90;;;;;;5018518;28;112199;-67
2022/10/24 14:21:55;;;;;;;;;;;17.90;99.90;;;;;;4982875;28;20125;-67
2022/10/24 14:24:21;;;;;;;;;;;17.50;99.90;;;;;;5030130;28;19917;-68
2022/10/24 14:26:50;;;;;;;;;;;17.40;99.90;;;;;;4996093;28;158784;-68